createdAt,value
2018-04-30T00:00:10.498Z,0
2018-04-30T00:01:11.166Z,0
2018-04-30T00:02:11.835Z,0
2018-04-30T00:03:12.503Z,0
2018-04-30T00:04:13.171Z,0
2018-04-30T00:05:13.837Z,0
2018-04-30T00:06:14.503Z,0
2018-04-30T00:07:15.169Z,0
2018-04-30T00:08:15.874Z,0
2018-04-30T00:09:16.542Z,0
2018-04-30T00:10:17.209Z,0
2018-04-30T00:11:17.875Z,0
2018-04-30T00:12:18.542Z,0
2018-04-30T00:13:19.210Z,0
2018-04-30T00:14:19.875Z,0
2018-04-30T00:15:20.541Z,0
2018-04-30T00:16:21.212Z,0
2018-04-30T00:17:21.878Z,0
2018-04-30T00:18:22.548Z,0
2018-04-30T00:19:23.214Z,0
2018-04-30T00:20:23.881Z,0
2018-04-30T00:21:24.546Z,0
2018-04-30T00:22:25.212Z,0
2018-04-30T00:23:25.879Z,0
2018-04-30T00:24:26.546Z,0
2018-04-30T00:25:27.212Z,0
2018-04-30T00:26:27.878Z,0
2018-04-30T00:27:28.543Z,0
2018-04-30T00:28:29.209Z,0
2018-04-30T00:29:29.881Z,0
2018-04-30T00:30:30.544Z,0
2018-04-30T00:31:31.245Z,0
2018-04-30T00:32:31.912Z,0
2018-04-30T00:33:32.637Z,0
2018-04-30T00:34:33.244Z,0
2018-04-30T00:35:33.910Z,0
2018-04-30T00:36:34.577Z,0
2018-04-30T00:37:35.243Z,0
2018-04-30T00:38:35.910Z,0
2018-04-30T00:39:36.576Z,0
2018-04-30T00:40:37.244Z,0
2018-04-30T00:41:37.908Z,0
2018-04-30T00:42:38.574Z,0
2018-04-30T00:43:39.241Z,0
2018-04-30T00:44:39.910Z,0
2018-04-30T00:45:40.579Z,0
2018-04-30T00:46:41.246Z,0
2018-04-30T00:47:41.914Z,0
2018-04-30T00:48:42.580Z,0
2018-04-30T00:49:43.250Z,0
2018-04-30T00:50:43.951Z,0
2018-04-30T00:51:44.620Z,0
2018-04-30T00:52:45.324Z,0
2018-04-30T00:53:45.991Z,0
2018-04-30T00:54:46.657Z,0
2018-04-30T00:55:47.322Z,0
2018-04-30T00:56:47.990Z,0
2018-04-30T00:57:48.656Z,0
2018-04-30T00:58:49.322Z,0
2018-04-30T00:59:49.987Z,0
2018-04-30T01:00:50.655Z,0
2018-04-30T01:01:51.320Z,0
2018-04-30T01:02:52.035Z,0
2018-04-30T01:03:52.690Z,0
2018-04-30T01:04:53.356Z,0
2018-04-30T01:05:54.022Z,0
2018-04-30T01:06:54.695Z,0
2018-04-30T01:07:55.394Z,0
2018-04-30T01:08:56.062Z,0
2018-04-30T01:09:56.729Z,0
2018-04-30T01:10:57.401Z,0
2018-04-30T01:11:58.063Z,0
2018-04-30T01:12:58.729Z,0
2018-04-30T01:13:59.396Z,0
2018-04-30T01:15:00.064Z,0
2018-04-30T01:16:00.731Z,0
2018-04-30T01:17:01.398Z,0
2018-04-30T01:18:02.064Z,0
2018-04-30T01:19:02.730Z,0
2018-04-30T01:20:03.395Z,0
2018-04-30T01:21:04.062Z,0
2018-04-30T01:22:04.729Z,0
2018-04-30T01:23:05.398Z,0
2018-04-30T01:24:06.064Z,0
2018-04-30T01:25:06.734Z,0
2018-04-30T01:26:07.401Z,0
2018-04-30T01:27:08.105Z,0
2018-04-30T01:28:08.777Z,0
2018-04-30T01:29:09.442Z,0
2018-04-30T01:30:10.110Z,0
2018-04-30T01:31:10.780Z,0
2018-04-30T01:32:11.444Z,0
2018-04-30T01:33:12.147Z,0
2018-04-30T01:34:12.817Z,0
2018-04-30T01:35:13.480Z,0
2018-04-30T01:36:14.147Z,0
2018-04-30T01:37:14.820Z,0
2018-04-30T01:38:15.522Z,0
2018-04-30T01:39:16.189Z,0
2018-04-30T01:40:16.855Z,0
2018-04-30T01:41:17.521Z,0
2018-04-30T01:42:18.187Z,0
2018-04-30T01:43:18.854Z,0
2018-04-30T01:44:19.519Z,0
2018-04-30T01:45:20.187Z,0
2018-04-30T01:46:20.854Z,0
2018-04-30T01:47:21.521Z,0
2018-04-30T01:48:22.188Z,0
2018-04-30T01:49:22.854Z,0
2018-04-30T01:50:23.522Z,0
2018-04-30T01:51:24.188Z,0
2018-04-30T01:52:24.856Z,0
2018-04-30T01:53:25.524Z,0
2018-04-30T01:54:26.193Z,0
2018-04-30T01:55:26.860Z,0
2018-04-30T01:56:27.527Z,0
2018-04-30T01:57:28.194Z,0
2018-04-30T01:58:28.860Z,0
2018-04-30T01:59:29.528Z,0
2018-04-30T02:00:30.195Z,0
2018-04-30T02:01:30.863Z,0
2018-04-30T02:02:31.531Z,0
2018-04-30T02:03:32.196Z,0
2018-04-30T02:04:32.863Z,0
2018-04-30T02:05:33.531Z,0
2018-04-30T02:06:34.197Z,0
2018-04-30T02:07:34.864Z,0
2018-04-30T02:08:35.534Z,0
2018-04-30T02:09:36.200Z,0
2018-04-30T02:10:36.869Z,0
2018-04-30T02:11:37.537Z,0
2018-04-30T02:12:38.210Z,0
2018-04-30T02:13:38.872Z,0
2018-04-30T02:14:39.539Z,0
2018-04-30T02:15:40.205Z,0
2018-04-30T02:16:40.871Z,0
2018-04-30T02:17:41.538Z,0
2018-04-30T02:18:42.207Z,0
2018-04-30T02:19:42.874Z,0
2018-04-30T02:20:43.542Z,0
2018-04-30T02:21:44.208Z,0
2018-04-30T02:22:44.876Z,0
2018-04-30T02:23:45.541Z,0
2018-04-30T02:24:46.209Z,0
2018-04-30T02:25:46.874Z,0
2018-04-30T02:26:47.541Z,0
2018-04-30T02:27:48.211Z,0
2018-04-30T02:28:48.878Z,0
2018-04-30T02:29:49.554Z,0
2018-04-30T02:30:50.252Z,0
2018-04-30T02:31:50.919Z,0
2018-04-30T02:32:51.588Z,0
2018-04-30T02:33:52.264Z,0
2018-04-30T02:34:52.968Z,0
2018-04-30T02:35:53.624Z,0
2018-04-30T02:36:54.290Z,0
2018-04-30T02:37:54.961Z,0
2018-04-30T02:38:55.676Z,0
2018-04-30T02:39:56.342Z,0
2018-04-30T02:40:57.010Z,0
2018-04-30T02:41:57.676Z,0
2018-04-30T02:42:58.343Z,0
2018-04-30T02:43:59.009Z,0
2018-04-30T02:44:59.677Z,0
2018-04-30T02:46:00.341Z,0
2018-04-30T02:47:01.009Z,0
2018-04-30T02:48:01.677Z,0
2018-04-30T02:49:02.352Z,0
2018-04-30T02:50:03.051Z,0
2018-04-30T02:51:03.767Z,0
2018-04-30T02:52:04.425Z,0
2018-04-30T02:53:05.093Z,0
2018-04-30T02:54:05.763Z,0
2018-04-30T02:55:06.427Z,0
2018-04-30T02:56:07.098Z,0
2018-04-30T02:57:07.793Z,0
2018-04-30T02:58:08.460Z,0
2018-04-30T02:59:09.127Z,0
2018-04-30T03:00:09.794Z,0
2018-04-30T03:01:10.460Z,0
2018-04-30T03:02:11.128Z,0
2018-04-30T03:03:11.796Z,0
2018-04-30T03:04:12.466Z,0
2018-04-30T03:05:13.131Z,0
2018-04-30T03:06:13.797Z,0
2018-04-30T03:07:14.465Z,0
2018-04-30T03:08:15.130Z,0
2018-04-30T03:09:15.796Z,0
2018-04-30T03:10:16.463Z,0
2018-04-30T03:11:17.130Z,0
2018-04-30T03:12:17.805Z,0
2018-04-30T03:13:18.468Z,0
2018-04-30T03:14:19.134Z,0
2018-04-30T03:15:19.799Z,0
2018-04-30T03:16:20.466Z,0
2018-04-30T03:17:21.131Z,0
2018-04-30T03:18:21.800Z,0
2018-04-30T03:19:22.465Z,0
2018-04-30T03:20:23.132Z,4
2018-04-30T03:21:23.799Z,4
2018-04-30T03:22:24.466Z,4
2018-04-30T03:23:25.131Z,0
2018-04-30T03:24:25.798Z,4
2018-04-30T03:25:26.464Z,4
2018-04-30T03:26:27.132Z,8
2018-04-30T03:27:27.797Z,4
2018-04-30T03:28:28.466Z,8
2018-04-30T03:29:29.134Z,8
2018-04-30T03:30:29.803Z,8
2018-04-30T03:31:30.473Z,8
2018-04-30T03:32:31.137Z,12
2018-04-30T03:33:31.805Z,16
2018-04-30T03:34:32.473Z,16
2018-04-30T03:35:33.142Z,24
2018-04-30T03:36:33.811Z,24
2018-04-30T03:37:34.483Z,28
2018-04-30T03:38:35.182Z,32
2018-04-30T03:39:35.857Z,36
2018-04-30T03:40:36.554Z,40
2018-04-30T03:41:37.221Z,44
2018-04-30T03:42:37.888Z,52
2018-04-30T03:43:38.555Z,60
2018-04-30T03:44:39.226Z,64
2018-04-30T03:45:39.889Z,80
2018-04-30T03:46:40.561Z,88
2018-04-30T03:47:41.228Z,104
2018-04-30T03:48:41.897Z,120
2018-04-30T03:49:42.628Z,136
2018-04-30T03:50:43.235Z,152
2018-04-30T03:51:43.905Z,172
2018-04-30T03:52:44.572Z,188
2018-04-30T03:53:45.241Z,204
2018-04-30T03:54:45.909Z,224
2018-04-30T03:55:46.579Z,244
2018-04-30T03:56:47.250Z,260
2018-04-30T03:57:47.918Z,280
2018-04-30T03:58:48.588Z,296
2018-04-30T03:59:49.257Z,312
2018-04-30T04:00:49.928Z,324
2018-04-30T04:01:50.598Z,340
2018-04-30T04:02:51.304Z,352
2018-04-30T04:03:51.974Z,372
2018-04-30T04:04:52.646Z,388
2018-04-30T04:05:53.319Z,408
2018-04-30T04:06:53.985Z,428
2018-04-30T04:07:54.657Z,452
2018-04-30T04:08:55.324Z,476
2018-04-30T04:09:55.993Z,500
2018-04-30T04:10:56.664Z,524
2018-04-30T04:11:57.332Z,552
2018-04-30T04:12:58.004Z,580
2018-04-30T04:13:58.675Z,604
2018-04-30T04:14:59.345Z,636
2018-04-30T04:16:00.015Z,664
2018-04-30T04:17:00.688Z,700
2018-04-30T04:18:01.355Z,736
2018-04-30T04:19:02.028Z,772
2018-04-30T04:20:02.694Z,812
2018-04-30T04:21:03.367Z,852
2018-04-30T04:22:04.037Z,888
2018-04-30T04:23:04.705Z,928
2018-04-30T04:24:05.376Z,968
2018-04-30T04:25:06.051Z,1004
2018-04-30T04:26:06.720Z,1040
2018-04-30T04:27:07.391Z,1084
2018-04-30T04:28:08.064Z,1132
2018-04-30T04:29:08.736Z,1172
2018-04-30T04:30:09.406Z,1208
2018-04-30T04:31:10.076Z,1248
2018-04-30T04:32:10.748Z,1284
2018-04-30T04:33:11.421Z,1320
2018-04-30T04:34:12.128Z,1352
2018-04-30T04:35:12.851Z,1388
2018-04-30T04:36:13.523Z,1424
2018-04-30T04:37:14.195Z,1452
2018-04-30T04:38:14.866Z,1476
2018-04-30T04:39:15.536Z,1504
2018-04-30T04:40:16.209Z,1536
2018-04-30T04:41:16.879Z,1552
2018-04-30T04:42:17.552Z,1564
2018-04-30T04:43:18.261Z,1584
2018-04-30T04:44:18.931Z,1612
2018-04-30T04:45:19.603Z,1700
2018-04-30T04:46:20.276Z,1804
2018-04-30T04:47:20.951Z,1912
2018-04-30T04:48:21.618Z,2060
2018-04-30T04:49:22.291Z,2244
2018-04-30T04:50:22.967Z,2412
2018-04-30T04:51:23.635Z,2548
2018-04-30T04:52:24.308Z,2724
2018-04-30T04:53:24.979Z,2900
2018-04-30T04:54:25.649Z,3040
2018-04-30T04:55:26.322Z,3112
2018-04-30T04:56:26.993Z,3136
2018-04-30T04:57:27.666Z,3052
2018-04-30T04:58:28.338Z,2976
2018-04-30T04:59:29.011Z,3004
2018-04-30T05:00:29.683Z,3088
2018-04-30T05:01:30.391Z,3204
2018-04-30T05:02:31.101Z,3316
2018-04-30T05:03:31.774Z,3424
2018-04-30T05:04:32.443Z,3572
2018-04-30T05:05:33.112Z,3732
2018-04-30T05:06:33.785Z,3876
2018-04-30T05:07:34.457Z,4044
2018-04-30T05:08:35.129Z,4232
2018-04-30T05:09:35.800Z,4416
2018-04-30T05:10:36.473Z,4584
2018-04-30T05:11:37.145Z,4796
2018-04-30T05:12:37.817Z,5036
2018-04-30T05:13:38.490Z,5260
2018-04-30T05:14:39.164Z,5444
2018-04-30T05:15:39.835Z,5568
2018-04-30T05:16:40.508Z,5708
2018-04-30T05:17:41.180Z,5780
2018-04-30T05:18:41.852Z,5872
2018-04-30T05:19:42.526Z,5708
2018-04-30T05:20:43.202Z,5796
2018-04-30T05:21:43.871Z,6020
2018-04-30T05:22:44.544Z,6076
2018-04-30T05:23:45.219Z,5952
2018-04-30T05:24:45.929Z,5668
2018-04-30T05:25:46.600Z,5576
2018-04-30T05:26:47.279Z,5320
2018-04-30T05:27:47.948Z,5172
2018-04-30T05:28:48.621Z,4824
2018-04-30T05:29:49.294Z,4396
2018-04-30T05:30:49.967Z,4240
2018-04-30T05:31:50.641Z,3864
2018-04-30T05:32:51.314Z,3708
2018-04-30T05:33:52.013Z,3892
2018-04-30T05:34:52.663Z,3464
2018-04-30T05:35:53.335Z,3124
2018-04-30T05:36:54.009Z,2904
2018-04-30T05:37:54.680Z,3252
2018-04-30T05:38:55.353Z,3656
2018-04-30T05:39:56.029Z,3792
2018-04-30T05:40:56.702Z,3296
2018-04-30T05:41:57.374Z,3488
2018-04-30T05:42:58.047Z,3544
2018-04-30T05:43:58.721Z,4300
2018-04-30T05:44:59.394Z,4440
2018-04-30T05:46:00.069Z,5068
2018-04-30T05:47:00.745Z,5096
2018-04-30T05:48:01.423Z,3892
2018-04-30T05:49:02.092Z,4312
2018-04-30T05:50:02.766Z,5304
2018-04-30T05:51:03.442Z,5640
2018-04-30T05:52:04.113Z,5436
2018-04-30T05:53:04.788Z,5760
2018-04-30T05:54:05.463Z,5920
2018-04-30T05:55:06.195Z,4228
2018-04-30T05:56:06.809Z,4356
2018-04-30T05:57:07.484Z,4648
2018-04-30T05:58:08.194Z,5416
2018-04-30T05:59:08.869Z,5356
2018-04-30T06:00:09.543Z,6056
2018-04-30T06:01:10.220Z,5944
2018-04-30T06:02:10.899Z,5948
2018-04-30T06:03:11.567Z,6496
2018-04-30T06:04:12.239Z,6508
2018-04-30T06:05:12.913Z,6440
2018-04-30T06:06:13.589Z,6088
2018-04-30T06:07:14.262Z,5716
2018-04-30T06:08:14.938Z,5844
2018-04-30T06:09:15.611Z,6284
2018-04-30T06:10:16.283Z,6340
2018-04-30T06:11:16.957Z,6824
2018-04-30T06:12:17.632Z,7152
2018-04-30T06:13:18.313Z,7140
2018-04-30T06:14:18.984Z,6848
2018-04-30T06:15:19.692Z,7020
2018-04-30T06:16:20.365Z,6728
2018-04-30T06:17:21.040Z,7072
2018-04-30T06:18:21.716Z,5788
2018-04-30T06:19:22.391Z,5496
2018-04-30T06:20:23.069Z,6128
2018-04-30T06:21:23.739Z,6452
2018-04-30T06:22:24.413Z,6048
2018-04-30T06:23:25.088Z,6244
2018-04-30T06:24:25.763Z,6320
2018-04-30T06:25:26.439Z,6516
2018-04-30T06:26:27.112Z,7900
2018-04-30T06:27:27.787Z,9296
2018-04-30T06:28:28.462Z,15836
2018-04-30T06:29:29.135Z,8560
2018-04-30T06:30:29.815Z,5548
2018-04-30T06:31:30.487Z,4948
2018-04-30T06:32:31.162Z,4804
2018-04-30T06:33:31.836Z,5756
2018-04-30T06:34:32.548Z,4248
2018-04-30T06:35:33.223Z,3740
2018-04-30T06:36:33.897Z,3452
2018-04-30T06:37:34.574Z,3076
2018-04-30T06:38:35.250Z,2888
2018-04-30T06:39:35.923Z,3188
2018-04-30T06:40:36.598Z,3392
2018-04-30T06:41:37.275Z,3080
2018-04-30T06:42:37.984Z,2632
2018-04-30T06:43:38.659Z,2220
2018-04-30T06:44:39.333Z,1988
2018-04-30T06:45:40.009Z,1812
2018-04-30T06:46:40.681Z,1724
2018-04-30T06:47:41.356Z,1632
2018-04-30T06:48:42.030Z,1564
2018-04-30T06:49:42.703Z,1596
2018-04-30T06:50:43.377Z,1720
2018-04-30T06:51:44.050Z,1904
2018-04-30T06:52:44.728Z,2088
2018-04-30T06:53:45.436Z,2028
2018-04-30T06:54:46.109Z,1924
2018-04-30T06:55:46.786Z,1904
2018-04-30T06:56:47.459Z,1968
2018-04-30T06:57:48.133Z,2252
2018-04-30T06:58:48.806Z,2732
2018-04-30T06:59:49.481Z,3212
2018-04-30T07:00:50.157Z,3520
2018-04-30T07:01:50.833Z,3620
2018-04-30T07:02:51.506Z,3152
2018-04-30T07:03:52.183Z,2540
2018-04-30T07:04:52.856Z,2168
2018-04-30T07:05:53.529Z,1932
2018-04-30T07:06:54.201Z,1804
2018-04-30T07:07:54.874Z,1724
2018-04-30T07:08:55.582Z,1632
2018-04-30T07:09:56.256Z,1580
2018-04-30T07:10:56.930Z,1480
2018-04-30T07:11:57.609Z,1380
2018-04-30T07:12:58.311Z,1268
2018-04-30T07:13:58.985Z,1196
2018-04-30T07:14:59.657Z,1148
2018-04-30T07:16:00.333Z,1104
2018-04-30T07:17:01.006Z,1084
2018-04-30T07:18:01.681Z,1088
2018-04-30T07:19:02.355Z,1148
2018-04-30T07:20:03.128Z,1232
2018-04-30T07:21:03.743Z,1304
2018-04-30T07:22:04.411Z,1324
2018-04-30T07:23:05.087Z,1356
2018-04-30T07:24:05.757Z,1392
2018-04-30T07:25:06.493Z,1372
2018-04-30T07:26:07.102Z,1408
2018-04-30T07:27:07.777Z,1548
2018-04-30T07:28:08.484Z,1616
2018-04-30T07:29:09.156Z,1768
2018-04-30T07:30:09.829Z,1772
2018-04-30T07:31:10.503Z,1676
2018-04-30T07:32:11.179Z,1724
2018-04-30T07:33:11.906Z,1792
2018-04-30T07:34:12.524Z,1808
2018-04-30T07:35:13.196Z,1952
2018-04-30T07:36:13.869Z,2204
2018-04-30T07:37:14.541Z,2592
2018-04-30T07:38:15.217Z,3068
2018-04-30T07:39:15.890Z,2960
2018-04-30T07:40:16.565Z,3008
2018-04-30T07:41:17.237Z,3156
2018-04-30T07:42:17.911Z,3324
2018-04-30T07:43:18.584Z,3484
2018-04-30T07:44:19.259Z,3596
2018-04-30T07:45:19.932Z,3544
2018-04-30T07:46:20.606Z,3324
2018-04-30T07:47:21.280Z,3172
2018-04-30T07:48:21.954Z,3240
2018-04-30T07:49:22.630Z,3556
2018-04-30T07:50:23.301Z,4088
2018-04-30T07:51:23.974Z,5520
2018-04-30T07:52:24.649Z,5748
2018-04-30T07:53:25.324Z,5720
2018-04-30T07:54:26.002Z,7528
2018-04-30T07:55:26.673Z,7764
2018-04-30T07:56:27.349Z,7600
2018-04-30T07:57:28.023Z,7848
2018-04-30T07:58:28.696Z,7944
2018-04-30T07:59:29.371Z,8668
2018-04-30T08:00:30.043Z,7772
2018-04-30T08:01:30.719Z,9392
2018-04-30T08:02:31.398Z,9376
2018-04-30T08:03:32.070Z,9740
2018-04-30T08:04:32.743Z,9852
2018-04-30T08:05:33.422Z,13732
2018-04-30T08:06:34.095Z,13472
2018-04-30T08:07:34.771Z,13320
2018-04-30T08:08:35.449Z,12660
2018-04-30T08:09:36.125Z,11108
2018-04-30T08:10:36.800Z,9436
2018-04-30T08:11:37.478Z,7748
2018-04-30T08:12:38.151Z,6848
2018-04-30T08:13:38.901Z,6904
2018-04-30T08:14:39.535Z,6836
2018-04-30T08:15:40.211Z,8008
2018-04-30T08:16:40.886Z,8768
2018-04-30T08:17:41.563Z,7568
2018-04-30T08:18:42.314Z,7272
2018-04-30T08:19:42.913Z,7564
2018-04-30T08:20:43.589Z,7908
2018-04-30T08:21:44.265Z,8036
2018-04-30T08:22:44.940Z,7884
2018-04-30T08:23:45.617Z,7212
2018-04-30T08:24:46.292Z,6992
2018-04-30T08:25:46.976Z,7188
2018-04-30T08:26:47.651Z,7372
2018-04-30T08:27:48.358Z,7744
2018-04-30T08:28:49.035Z,9160
2018-04-30T08:29:49.749Z,9140
2018-04-30T08:30:50.427Z,10368
2018-04-30T08:31:51.105Z,11392
2018-04-30T08:32:51.784Z,12232
2018-04-30T08:33:52.461Z,11896
2018-04-30T08:34:53.146Z,11532
2018-04-30T08:35:53.855Z,11368
2018-04-30T08:36:54.532Z,11828
2018-04-30T08:37:55.213Z,12268
2018-04-30T08:38:55.890Z,14212
2018-04-30T08:39:56.569Z,15116
2018-04-30T08:40:57.285Z,13500
2018-04-30T08:41:58.002Z,13108
2018-04-30T08:42:58.681Z,11428
2018-04-30T08:43:59.359Z,11212
2018-04-30T08:45:00.051Z,10128
2018-04-30T08:46:00.753Z,9724
2018-04-30T08:47:01.433Z,10060
2018-04-30T08:48:02.160Z,9564
2018-04-30T08:49:02.840Z,10828
2018-04-30T08:50:03.518Z,13308
2018-04-30T08:51:04.199Z,12144
2018-04-30T08:52:04.964Z,11248
2018-04-30T08:53:05.558Z,10344
2018-04-30T08:54:06.241Z,11060
2018-04-30T08:55:06.915Z,9904
2018-04-30T08:56:07.595Z,10576
2018-04-30T08:57:08.275Z,10108
2018-04-30T08:58:09.039Z,9536
2018-04-30T08:59:09.718Z,8904
2018-04-30T09:00:10.395Z,8280
2018-04-30T09:01:11.071Z,7296
2018-04-30T09:02:11.751Z,7652
2018-04-30T09:03:12.483Z,7904
2018-04-30T09:04:13.157Z,9436
2018-04-30T09:05:13.835Z,10308
2018-04-30T09:06:14.514Z,11268
2018-04-30T09:07:15.196Z,11144
2018-04-30T09:08:15.883Z,10328
2018-04-30T09:09:16.553Z,10448
2018-04-30T09:10:17.269Z,10112
2018-04-30T09:11:17.945Z,9432
2018-04-30T09:12:18.625Z,8532
2018-04-30T09:13:19.307Z,7820
2018-04-30T09:14:19.982Z,7480
2018-04-30T09:15:20.660Z,7348
2018-04-30T09:16:21.338Z,7132
2018-04-30T09:17:22.015Z,6672
2018-04-30T09:18:22.729Z,6496
2018-04-30T09:19:23.408Z,6344
2018-04-30T09:20:24.087Z,5992
2018-04-30T09:21:24.764Z,5624
2018-04-30T09:22:25.443Z,5028
2018-04-30T09:23:26.118Z,4596
2018-04-30T09:24:26.795Z,4304
2018-04-30T09:25:27.473Z,4000
2018-04-30T09:26:28.152Z,3792
2018-04-30T09:27:28.827Z,3772
2018-04-30T09:28:29.506Z,4052
2018-04-30T09:29:30.180Z,5052
2018-04-30T09:30:30.856Z,6232
2018-04-30T09:31:31.533Z,6892
2018-04-30T09:32:32.211Z,7092
2018-04-30T09:33:32.885Z,6992
2018-04-30T09:34:33.562Z,7004
2018-04-30T09:35:34.237Z,7044
2018-04-30T09:36:34.913Z,7808
2018-04-30T09:37:35.591Z,8676
2018-04-30T09:38:36.269Z,9080
2018-04-30T09:39:36.945Z,8716
2018-04-30T09:40:37.658Z,8692
2018-04-30T09:41:38.334Z,8840
2018-04-30T09:42:39.010Z,8652
2018-04-30T09:43:39.690Z,7512
2018-04-30T09:44:40.364Z,7008
2018-04-30T09:45:41.039Z,7836
2018-04-30T09:46:41.720Z,7868
2018-04-30T09:47:42.429Z,6816
2018-04-30T09:48:43.105Z,6400
2018-04-30T09:49:43.780Z,6436
2018-04-30T09:50:44.464Z,6304
2018-04-30T09:51:45.135Z,6260
2018-04-30T09:52:45.812Z,5912
2018-04-30T09:53:46.486Z,4948
2018-04-30T09:54:47.164Z,3936
2018-04-30T09:55:47.837Z,3128
2018-04-30T09:56:48.517Z,3012
2018-04-30T09:57:49.221Z,3340
2018-04-30T09:58:49.867Z,3980
2018-04-30T09:59:50.542Z,4348
2018-04-30T10:00:51.217Z,5824
2018-04-30T10:01:51.894Z,11308
2018-04-30T10:02:52.571Z,12724
2018-04-30T10:03:53.247Z,9776
2018-04-30T10:04:53.924Z,7776
2018-04-30T10:05:54.640Z,6844
2018-04-30T10:06:55.314Z,7572
2018-04-30T10:07:55.993Z,7708
2018-04-30T10:08:56.666Z,8556
2018-04-30T10:09:57.343Z,8988
2018-04-30T10:10:58.017Z,9308
2018-04-30T10:11:58.694Z,9288
2018-04-30T10:12:59.369Z,9420
2018-04-30T10:14:00.045Z,9092
2018-04-30T10:15:00.722Z,8440
2018-04-30T10:16:01.399Z,7908
2018-04-30T10:17:02.078Z,7252
2018-04-30T10:18:02.752Z,7044
2018-04-30T10:19:03.465Z,7156
2018-04-30T10:20:04.142Z,7192
2018-04-30T10:21:04.818Z,7884
2018-04-30T10:22:05.494Z,8068
2018-04-30T10:23:06.169Z,7876
2018-04-30T10:24:06.846Z,8172
2018-04-30T10:25:07.520Z,8432
2018-04-30T10:26:08.194Z,9472
2018-04-30T10:27:08.909Z,9612
2018-04-30T10:28:09.587Z,10276
2018-04-30T10:29:10.367Z,11272
2018-04-30T10:30:10.972Z,11440
2018-04-30T10:31:11.653Z,12276
2018-04-30T10:32:12.362Z,11908
2018-04-30T10:33:13.040Z,12160
2018-04-30T10:34:13.716Z,10468
2018-04-30T10:35:14.393Z,9572
2018-04-30T10:36:15.070Z,8500
2018-04-30T10:37:15.747Z,8012
2018-04-30T10:38:16.423Z,7816
2018-04-30T10:39:17.101Z,7624
2018-04-30T10:40:17.778Z,7652
2018-04-30T10:41:18.454Z,8296
2018-04-30T10:42:19.131Z,9404
2018-04-30T10:43:19.808Z,10068
2018-04-30T10:44:20.485Z,10576
2018-04-30T10:45:21.161Z,10652
2018-04-30T10:46:21.840Z,11184
2018-04-30T10:47:22.517Z,11580
2018-04-30T10:48:23.193Z,12948
2018-04-30T10:49:23.870Z,14308
2018-04-30T10:50:24.547Z,13876
2018-04-30T10:51:25.227Z,16896
2018-04-30T10:52:25.905Z,14368
2018-04-30T10:53:26.584Z,14480
2018-04-30T10:54:27.262Z,13236
2018-04-30T10:55:27.944Z,11044
2018-04-30T10:56:28.621Z,11888
2018-04-30T10:57:29.300Z,11496
2018-04-30T10:58:29.983Z,11268
2018-04-30T10:59:30.696Z,12540
2018-04-30T11:00:31.372Z,11936
2018-04-30T11:01:32.050Z,11120
2018-04-30T11:02:32.788Z,11568
2018-04-30T11:03:33.411Z,11292
2018-04-30T11:04:34.087Z,11092
2018-04-30T11:05:34.763Z,12092
2018-04-30T11:06:35.441Z,10208
2018-04-30T11:07:36.130Z,9632
2018-04-30T11:08:36.835Z,9392
2018-04-30T11:09:37.511Z,8676
2018-04-30T11:10:38.189Z,6564
2018-04-30T11:11:38.867Z,7300
2018-04-30T11:12:39.544Z,5280
2018-04-30T11:13:40.221Z,4636
2018-04-30T11:14:40.900Z,7616
2018-04-30T11:15:41.576Z,6004
2018-04-30T11:16:42.253Z,4624
2018-04-30T11:17:42.932Z,4488
2018-04-30T11:18:43.609Z,4604
2018-04-30T11:19:44.284Z,3104
2018-04-30T11:20:44.961Z,5092
2018-04-30T11:21:45.638Z,5652
2018-04-30T11:22:46.317Z,5024
2018-04-30T11:23:46.992Z,4380
2018-04-30T11:24:47.668Z,5252
2018-04-30T11:25:48.347Z,6168
2018-04-30T11:26:49.027Z,7060
2018-04-30T11:27:49.699Z,5116
2018-04-30T11:28:50.377Z,7596
2018-04-30T11:29:51.052Z,7932
2018-04-30T11:30:51.727Z,6524
2018-04-30T11:31:52.403Z,5252
2018-04-30T11:32:53.079Z,5936
2018-04-30T11:33:53.755Z,6896
2018-04-30T11:34:54.431Z,5644
2018-04-30T11:35:55.106Z,5244
2018-04-30T11:36:55.781Z,5384
2018-04-30T11:37:56.461Z,5976
2018-04-30T11:38:57.133Z,5660
2018-04-30T11:39:57.830Z,5340
2018-04-30T11:40:58.484Z,5488
2018-04-30T11:41:59.159Z,4764
2018-04-30T11:42:59.834Z,4932
2018-04-30T11:44:00.513Z,6424
2018-04-30T11:45:01.196Z,7308
2018-04-30T11:46:01.901Z,4768
2018-04-30T11:47:02.627Z,5064
2018-04-30T11:48:03.251Z,6920
2018-04-30T11:49:03.926Z,7332
2018-04-30T11:50:04.601Z,5624
2018-04-30T11:51:05.278Z,4832
2018-04-30T11:52:05.960Z,4904
2018-04-30T11:53:06.627Z,4516
2018-04-30T11:54:07.303Z,4212
2018-04-30T11:55:07.979Z,4104
2018-04-30T11:56:08.695Z,4212
2018-04-30T11:57:09.330Z,4148
2018-04-30T11:58:10.006Z,4164
2018-04-30T11:59:10.680Z,4168
2018-04-30T12:00:11.355Z,4236
2018-04-30T12:01:12.033Z,4272
2018-04-30T12:02:12.743Z,3460
2018-04-30T12:03:13.417Z,4504
2018-04-30T12:04:14.094Z,4688
2018-04-30T12:05:14.769Z,3944
2018-04-30T12:06:15.441Z,2160
2018-04-30T12:07:16.116Z,2748
2018-04-30T12:08:16.792Z,6648
2018-04-30T12:09:17.466Z,3888
2018-04-30T12:10:18.143Z,4432
2018-04-30T12:11:18.819Z,5748
2018-04-30T12:12:19.493Z,4976
2018-04-30T12:13:20.167Z,3792
2018-04-30T12:14:20.842Z,4480
2018-04-30T12:15:21.515Z,6380
2018-04-30T12:16:22.189Z,7456
2018-04-30T12:17:22.864Z,3956
2018-04-30T12:18:23.538Z,5324
2018-04-30T12:19:24.214Z,6628
2018-04-30T12:20:24.890Z,7132
2018-04-30T12:21:25.565Z,5884
2018-04-30T12:22:26.283Z,4372
2018-04-30T12:23:26.953Z,6264
2018-04-30T12:24:27.629Z,7324
2018-04-30T12:25:28.305Z,8412
2018-04-30T12:26:28.983Z,7048
2018-04-30T12:27:29.654Z,6048
2018-04-30T12:28:30.330Z,5828
2018-04-30T12:29:31.007Z,5480
2018-04-30T12:30:31.721Z,6460
2018-04-30T12:31:32.435Z,7184
2018-04-30T12:32:33.112Z,6752
2018-04-30T12:33:33.919Z,6096
2018-04-30T12:34:34.522Z,5256
2018-04-30T12:35:35.197Z,5340
2018-04-30T12:36:35.872Z,5480
2018-04-30T12:37:36.584Z,5480
2018-04-30T12:38:37.259Z,6344
2018-04-30T12:39:37.936Z,6952
2018-04-30T12:40:38.646Z,6008
2018-04-30T12:41:39.326Z,5268
2018-04-30T12:42:40.001Z,5108
2018-04-30T12:43:40.721Z,2272
2018-04-30T12:44:41.345Z,2672
2018-04-30T12:45:42.020Z,5468
2018-04-30T12:46:42.694Z,6524
2018-04-30T12:47:43.371Z,4016
2018-04-30T12:48:44.046Z,3388
2018-04-30T12:49:44.724Z,5000
2018-04-30T12:50:45.423Z,4788
2018-04-30T12:51:46.071Z,5820
2018-04-30T12:52:46.747Z,5172
2018-04-30T12:53:47.421Z,3680
2018-04-30T12:54:48.102Z,4000
2018-04-30T12:55:48.774Z,4124
2018-04-30T12:56:49.449Z,7624
2018-04-30T12:57:50.124Z,6112
2018-04-30T12:58:50.799Z,6216
2018-04-30T12:59:51.477Z,8536
2018-04-30T13:00:52.153Z,8780
2018-04-30T13:01:52.829Z,8264
2018-04-30T13:02:53.536Z,7116
2018-04-30T13:03:54.210Z,6176
2018-04-30T13:04:54.886Z,5792
2018-04-30T13:05:55.562Z,5348
2018-04-30T13:06:56.236Z,5364
2018-04-30T13:07:56.912Z,5180
2018-04-30T13:08:57.589Z,4952
2018-04-30T13:09:58.263Z,4796
2018-04-30T13:10:58.942Z,4772
2018-04-30T13:11:59.619Z,4820
2018-04-30T13:13:00.328Z,4884
2018-04-30T13:14:01.003Z,4884
2018-04-30T13:15:01.680Z,4928
2018-04-30T13:16:02.361Z,5044
2018-04-30T13:17:03.036Z,5040
2018-04-30T13:18:03.712Z,4820
2018-04-30T13:19:04.386Z,4796
2018-04-30T13:20:05.065Z,4784
2018-04-30T13:21:05.740Z,4864
2018-04-30T13:22:06.417Z,5016
2018-04-30T13:23:07.093Z,5024
2018-04-30T13:24:07.767Z,4916
2018-04-30T13:25:08.479Z,5332
2018-04-30T13:26:09.153Z,6064
2018-04-30T13:27:09.829Z,5792
2018-04-30T13:28:10.507Z,5392
2018-04-30T13:29:11.218Z,5256
2018-04-30T13:30:11.894Z,5136
2018-04-30T13:31:12.569Z,5840
2018-04-30T13:32:13.246Z,6256
2018-04-30T13:33:13.923Z,2984
2018-04-30T13:34:14.599Z,5728
2018-04-30T13:35:15.274Z,5288
2018-04-30T13:36:15.953Z,5600
2018-04-30T13:37:16.639Z,5752
2018-04-30T13:38:17.301Z,5884
2018-04-30T13:39:17.977Z,2412
2018-04-30T13:40:18.653Z,5328
2018-04-30T13:41:19.328Z,5564
2018-04-30T13:42:20.006Z,6188
2018-04-30T13:43:20.680Z,5628
2018-04-30T13:44:21.355Z,2320
2018-04-30T13:45:22.031Z,2244
2018-04-30T13:46:22.754Z,2644
2018-04-30T13:47:23.430Z,5476
2018-04-30T13:48:24.105Z,6716